createdAt,value
2022-12-11T00:00:38.808Z,158509.56
2022-12-11T00:03:42.933Z,158513.50
2022-12-11T00:06:50.332Z,158521.31
2022-12-11T00:09:54.636Z,158526.53
2022-12-11T00:12:59.012Z,158514.78
2022-12-11T00:16:03.236Z,158470.56
2022-12-11T00:19:07.941Z,158477.06
2022-12-11T00:22:11.830Z,158477.06
2022-12-11T00:25:15.847Z,158493.97
2022-12-11T00:28:20.165Z,158484.84
2022-12-11T00:31:25.036Z,158478.38
2022-12-11T00:34:29.381Z,158488.81
2022-12-11T00:37:33.598Z,158458.88
2022-12-11T00:40:37.658Z,158464.09
2022-12-11T00:43:42.432Z,158483.59
2022-12-11T00:46:46.549Z,158505.66
2022-12-11T00:49:50.568Z,158507.00
2022-12-11T00:52:54.482Z,158508.31
2022-12-11T00:55:58.672Z,158477.06
2022-12-11T00:59:02.924Z,158470.56
2022-12-11T01:02:07.185Z,158445.88
2022-12-11T01:05:11.500Z,158428.97
2022-12-11T01:08:15.588Z,158452.34
2022-12-11T01:11:20.896Z,158477.06
2022-12-11T01:14:26.870Z,158482.28
2022-12-11T01:17:30.977Z,158455.00
2022-12-11T01:20:35.075Z,158438.06
2022-12-11T01:23:40.006Z,158456.25
2022-12-11T01:26:44.199Z,158475.78
2022-12-11T01:29:49.513Z,158474.47
2022-12-11T01:32:53.869Z,158484.84
2022-12-11T01:35:57.906Z,158493.97
2022-12-11T01:39:01.606Z,158493.97
2022-12-11T01:42:10.235Z,158483.59
2022-12-11T01:45:44.730Z,158482.28
2022-12-11T01:48:49.311Z,158474.47
2022-12-11T01:51:59.021Z,158474.47
2022-12-11T01:55:03.870Z,158493.97
2022-12-11T01:58:08.782Z,158493.97
2022-12-11T02:01:18.611Z,158497.88
2022-12-11T02:04:23.341Z,158490.06
2022-12-11T02:07:28.264Z,158479.69
2022-12-11T02:11:06.127Z,158470.56
2022-12-11T02:14:47.006Z,158484.84
2022-12-11T02:18:04.715Z,158492.69
2022-12-11T02:21:37.623Z,158495.28
2022-12-11T02:24:57.902Z,158491.38
2022-12-11T02:28:31.708Z,158490.06
2022-12-11T02:31:38.543Z,158471.91
2022-12-11T02:34:46.993Z,158468.00
2022-12-11T02:37:57.616Z,158473.16
2022-12-11T02:41:04.225Z,158439.38
2022-12-11T02:44:10.606Z,158460.16
2022-12-11T02:47:17.356Z,158466.69
2022-12-11T02:50:23.624Z,158466.69
2022-12-11T02:53:31.617Z,158475.78
2022-12-11T02:56:47.168Z,158475.78
2022-12-11T02:59:50.917Z,158493.97
2022-12-11T03:02:54.786Z,158488.81
2022-12-11T03:05:58.821Z,158487.50
2022-12-11T03:09:05.359Z,158484.84
2022-12-11T03:12:15.125Z,158477.06
2022-12-11T03:15:21.811Z,158458.88
2022-12-11T03:18:39.518Z,158447.19
2022-12-11T03:21:53.593Z,158445.88
2022-12-11T03:25:04.463Z,158438.06
2022-12-11T03:28:17.768Z,158427.66
2022-12-11T03:31:33.652Z,158425.06
2022-12-11T03:34:37.676Z,158434.19
2022-12-11T03:37:44.664Z,158422.47
2022-12-11T03:40:52.124Z,158425.06
2022-12-11T03:43:58.906Z,158414.63
2022-12-11T03:47:07.160Z,158432.84
2022-12-11T03:50:13.617Z,158438.06
2022-12-11T03:53:19.143Z,158406.84
2022-12-11T03:56:26.700Z,158401.69
2022-12-11T03:59:30.826Z,158418.59
2022-12-11T04:02:34.994Z,158406.84
2022-12-11T04:05:41.346Z,158412.06
2022-12-11T04:08:45.065Z,158404.25
2022-12-11T04:11:48.863Z,158430.28
2022-12-11T04:15:01.842Z,158440.66
2022-12-11T04:18:24.735Z,158439.38
2022-12-11T04:21:47.230Z,158431.53
2022-12-11T04:24:51.372Z,158414.63
2022-12-11T04:27:55.835Z,158383.47
2022-12-11T04:31:00.484Z,158382.13
2022-12-11T04:34:04.879Z,158344.47
2022-12-11T04:37:08.617Z,158356.19
2022-12-11T04:40:15.032Z,158374.34
2022-12-11T04:43:19.291Z,158360.06
2022-12-11T04:46:24.713Z,158354.88
2022-12-11T04:49:28.731Z,158373.09
2022-12-11T04:52:32.981Z,158380.88
2022-12-11T04:55:36.864Z,158362.66
2022-12-11T04:58:42.893Z,158347.06
2022-12-11T05:01:47.678Z,158353.53
2022-12-11T05:04:52.433Z,158360.06
2022-12-11T05:07:56.430Z,158347.06
2022-12-11T05:11:02.800Z,158373.09
2022-12-11T05:14:06.915Z,158371.75
2022-12-11T05:17:10.821Z,158352.28
2022-12-11T05:20:14.871Z,158363.97
2022-12-11T05:23:18.640Z,158352.28
2022-12-11T05:26:22.753Z,158347.06
2022-12-11T05:29:26.860Z,158344.47
2022-12-11T05:32:30.745Z,158349.66
2022-12-11T05:35:34.706Z,158348.38
2022-12-11T05:38:38.947Z,158348.38
2022-12-11T05:41:42.883Z,158340.53
2022-12-11T05:44:46.896Z,158343.16
2022-12-11T05:47:51.227Z,158361.34
2022-12-11T05:50:59.908Z,158330.16
2022-12-11T05:54:04.226Z,158322.38
2022-12-11T05:57:08.599Z,158318.47
2022-12-11T06:00:13.285Z,158308.03
2022-12-11T06:03:17.444Z,158326.25
2022-12-11T06:06:22.164Z,158321.06
2022-12-11T06:09:26.267Z,158317.16
2022-12-11T06:12:31.024Z,158327.56
2022-12-11T06:15:35.184Z,158331.47
2022-12-11T06:18:41.781Z,158332.75
2022-12-11T06:21:48.745Z,158328.84
2022-12-11T06:24:52.834Z,158340.53
2022-12-11T06:27:56.995Z,158337.97
2022-12-11T06:31:01.359Z,158336.63
2022-12-11T06:34:05.178Z,158350.97
2022-12-11T06:37:09.264Z,158335.38
2022-12-11T06:40:13.435Z,158332.75
2022-12-11T06:43:17.332Z,158332.75
2022-12-11T06:46:21.401Z,158330.16
2022-12-11T06:49:25.246Z,158310.69
2022-12-11T06:52:29.591Z,158310.69
2022-12-11T06:55:37.278Z,158313.25
2022-12-11T06:58:42.878Z,158335.38
2022-12-11T07:01:47.021Z,158313.25
2022-12-11T07:04:55.102Z,158315.84
2022-12-11T07:07:59.682Z,158326.25
2022-12-11T07:11:07.803Z,158339.28
2022-12-11T07:14:11.792Z,158337.97
2022-12-11T07:17:16.315Z,158353.53
2022-12-11T07:20:20.687Z,158353.53
2022-12-11T07:23:24.860Z,158352.28
2022-12-11T07:26:29.449Z,158347.06
2022-12-11T07:29:33.309Z,158357.44
2022-12-11T07:32:37.483Z,158354.88
2022-12-11T07:35:42.054Z,158349.66
2022-12-11T07:38:46.285Z,158347.06
2022-12-11T07:41:50.284Z,158341.84
2022-12-11T07:44:54.411Z,158347.06
2022-12-11T07:47:59.070Z,158352.28
2022-12-11T07:51:15.087Z,158374.34
2022-12-11T07:54:18.928Z,158376.97
2022-12-11T07:57:23.058Z,158396.47
2022-12-11T08:00:27.321Z,158401.69
2022-12-11T08:03:31.703Z,158401.69
2022-12-11T08:06:38.183Z,158426.38
2022-12-11T08:09:42.197Z,158453.66
2022-12-11T08:12:46.022Z,158435.44
2022-12-11T08:15:50.101Z,158435.44
2022-12-11T08:18:54.637Z,158464.09
2022-12-11T08:21:58.765Z,158460.16
2022-12-11T08:25:02.752Z,158457.56
2022-12-11T08:28:07.040Z,158456.25
2022-12-11T08:31:13.417Z,158478.38
2022-12-11T08:34:17.537Z,158451.09
2022-12-11T08:37:21.492Z,158453.66
2022-12-11T08:40:25.161Z,158432.84
2022-12-11T08:43:29.433Z,158448.47
2022-12-11T08:46:33.933Z,158425.06
2022-12-11T08:49:37.851Z,158422.47
2022-12-11T08:52:42.172Z,158417.28
2022-12-11T08:55:45.977Z,158421.16
2022-12-11T08:58:50.759Z,158448.47
2022-12-11T09:01:55.878Z,158430.28
2022-12-11T09:04:59.963Z,158438.06
2022-12-11T09:08:04.368Z,158440.66
2022-12-11T09:11:11.804Z,158438.06
2022-12-11T09:14:16.262Z,158453.66
2022-12-11T09:17:20.390Z,158484.84
2022-12-11T09:20:24.592Z,158474.47
2022-12-11T09:23:29.476Z,158482.28
2022-12-11T09:26:33.413Z,158495.28
2022-12-11T09:29:38.458Z,158529.16
2022-12-11T09:32:42.183Z,158560.34
2022-12-11T09:35:46.510Z,158588.97
2022-12-11T09:38:51.389Z,158591.59
2022-12-11T09:42:05.130Z,158542.19
2022-12-11T09:45:14.844Z,158530.44
2022-12-11T09:48:24.004Z,158555.16
2022-12-11T09:51:42.877Z,158565.56
2022-12-11T09:54:51.083Z,158590.28
2022-12-11T09:58:08.210Z,158595.50
2022-12-11T10:01:38.010Z,158559.03
2022-12-11T10:05:00.747Z,158579.84
2022-12-11T10:08:37.997Z,158609.78
2022-12-11T10:11:56.760Z,158628.03
2022-12-11T10:15:23.899Z,158651.44
2022-12-11T10:18:29.149Z,158672.25
2022-12-11T10:21:40.299Z,158608.53
2022-12-11T10:28:20.141Z,158575.97
2022-12-11T10:31:59.751Z,158535.66
2022-12-11T10:35:06.103Z,158495.28
2022-12-11T10:38:23.557Z,158503.09
2022-12-11T10:41:38.321Z,158470.56
2022-12-11T10:44:42.369Z,158456.25
2022-12-11T10:47:46.834Z,158448.47
2022-12-11T10:51:07.096Z,158443.28
2022-12-11T10:54:31.907Z,158432.84
2022-12-11T10:57:38.591Z,158441.97
2022-12-11T11:00:42.731Z,158495.28
2022-12-11T11:04:06.665Z,158525.22
2022-12-11T11:07:15.038Z,158527.84
2022-12-11T11:10:19.352Z,158479.69
2022-12-11T11:13:26.083Z,158507.00
2022-12-11T11:16:31.143Z,158535.66
2022-12-11T11:19:36.827Z,158563.00
2022-12-11T11:22:53.992Z,158549.97
2022-12-11T11:26:00.951Z,158573.38
2022-12-11T11:29:05.451Z,158578.59
2022-12-11T11:32:39.820Z,158599.41
2022-12-11T11:35:54.782Z,158620.22
2022-12-11T11:39:17.509Z,158609.78
2022-12-11T11:42:30.142Z,158613.69
2022-12-11T11:45:55.144Z,158594.19
2022-12-11T11:49:35.085Z,158602.00
2022-12-11T11:52:45.936Z,158695.63
2022-12-11T11:56:16.254Z,158750.28
2022-12-11T11:59:36.498Z,158804.97
2022-12-11T12:02:41.225Z,158897.38
2022-12-11T12:05:57.589Z,158896.09
2022-12-11T12:09:29.620Z,158829.69
2022-12-11T12:12:39.568Z,158765.88
2022-12-11T12:15:58.516Z,158704.72
2022-12-11T12:19:14.154Z,158659.22
2022-12-11T12:22:48.005Z,158638.41
2022-12-11T12:26:06.601Z,158617.59
2022-12-11T12:29:18.417Z,158596.78
2022-12-11T12:32:43.612Z,158604.56
2022-12-11T12:36:06.581Z,158621.50
2022-12-11T12:39:22.295Z,158620.22
2022-12-11T12:42:52.334Z,158587.72
2022-12-11T12:45:56.155Z,158565.56
2022-12-11T12:49:02.265Z,158579.84
2022-12-11T12:52:13.380Z,158555.16
2022-12-11T12:55:27.148Z,158549.97
2022-12-11T12:58:45.162Z,158540.84
2022-12-11T13:01:55.135Z,158539.53
2022-12-11T13:05:07.362Z,158539.53
2022-12-11T13:08:13.070Z,158503.09
2022-12-11T13:11:20.020Z,158522.59
2022-12-11T13:14:28.455Z,158536.97
2022-12-11T13:17:39.074Z,158553.88
2022-12-11T13:20:48.370Z,158564.25
2022-12-11T13:23:52.870Z,158549.97
2022-12-11T13:27:11.754Z,158561.69
2022-12-11T13:30:15.520Z,158529.16
2022-12-11T13:33:22.923Z,158516.09
2022-12-11T13:36:31.764Z,158513.50
2022-12-11T13:39:39.504Z,158516.09
2022-12-11T13:42:59.530Z,158471.91
2022-12-11T13:46:09.287Z,158453.66
2022-12-11T13:49:26.617Z,158461.47
2022-12-11T13:52:31.619Z,158477.06
2022-12-11T13:55:36.059Z,158473.16
2022-12-11T13:58:40.547Z,158469.25
2022-12-11T14:01:44.995Z,158465.38
2022-12-11T14:04:51.768Z,158471.91
2022-12-11T14:07:58.621Z,158470.56
2022-12-11T14:11:03.253Z,158460.16
2022-12-11T14:14:17.807Z,158456.25
2022-12-11T14:17:26.136Z,158434.19
2022-12-11T14:20:32.820Z,158414.63
2022-12-11T14:23:37.678Z,158393.88
2022-12-11T14:26:51.044Z,158396.47
2022-12-11T14:29:55.501Z,158378.25
2022-12-11T14:33:04.480Z,158382.13
2022-12-11T14:36:08.836Z,158357.44
2022-12-11T14:39:34.299Z,158352.28
2022-12-11T14:42:47.894Z,158370.44
2022-12-11T14:45:57.847Z,158341.84
2022-12-11T14:49:07.415Z,158369.19
2022-12-11T14:52:19.106Z,158369.19
2022-12-11T14:55:30.089Z,158336.63
2022-12-11T14:58:39.654Z,158337.97
2022-12-11T15:01:43.722Z,158345.75
2022-12-11T15:05:01.663Z,158340.53
2022-12-11T15:08:12.574Z,158344.47
2022-12-11T15:11:17.936Z,158344.47
2022-12-11T15:14:23.206Z,158348.38
2022-12-11T15:17:28.445Z,158354.88
2022-12-11T15:20:32.919Z,158358.75
2022-12-11T15:24:00.674Z,158362.66
2022-12-11T15:27:05.880Z,158354.88
2022-12-11T15:30:26.578Z,158357.44
2022-12-11T15:33:34.225Z,158369.19
2022-12-11T15:36:38.679Z,158380.88
2022-12-11T15:39:42.710Z,158393.88
2022-12-11T15:42:47.315Z,158382.13
2022-12-11T15:45:51.670Z,158383.47
2022-12-11T15:48:57.383Z,158382.13
2022-12-11T15:52:01.594Z,158380.88
2022-12-11T15:55:06.065Z,158386.03
2022-12-11T15:58:15.893Z,158387.34
2022-12-11T16:01:19.905Z,158374.34
2022-12-11T16:04:24.012Z,158357.44
2022-12-11T16:07:28.234Z,158375.66
2022-12-11T16:10:32.735Z,158360.06
2022-12-11T16:13:37.033Z,158353.53
2022-12-11T16:16:40.889Z,158356.19
2022-12-11T16:19:44.955Z,158348.38
2022-12-11T16:22:49.234Z,158335.38
2022-12-11T16:25:53.709Z,158314.56
2022-12-11T16:28:57.803Z,158314.56
2022-12-11T16:32:01.932Z,158292.47
2022-12-11T16:35:06.500Z,158297.66
2022-12-11T16:38:11.587Z,158301.56
2022-12-11T16:41:15.828Z,158306.78
2022-12-11T16:44:21.636Z,158321.06
2022-12-11T16:47:26.100Z,158334.06
2022-12-11T16:50:30.263Z,158337.97
2022-12-11T16:53:34.495Z,158330.16
2022-12-11T16:56:39.136Z,158343.16
2022-12-11T16:59:43.685Z,158327.56
2022-12-11T17:02:48.363Z,158323.69
2022-12-11T17:05:52.249Z,158331.47
2022-12-11T17:08:56.238Z,158299.00
2022-12-11T17:12:00.648Z,158309.34
2022-12-11T17:15:05.198Z,158321.06
2022-12-11T17:18:10.167Z,158321.06
2022-12-11T17:21:16.238Z,158313.25
2022-12-11T17:24:20.249Z,158315.84
2022-12-11T17:27:24.124Z,158315.84
2022-12-11T17:30:28.305Z,158308.03
2022-12-11T17:33:32.509Z,158274.28
2022-12-11T17:36:36.812Z,158283.34
2022-12-11T17:39:40.840Z,158271.66
2022-12-11T17:42:45.129Z,158275.56
2022-12-11T17:45:52.499Z,158297.66
2022-12-11T17:48:59.458Z,158291.16
2022-12-11T17:52:03.835Z,158276.88
2022-12-11T17:55:09.671Z,158274.28
2022-12-11T17:58:20.028Z,158269.09
2022-12-11T18:01:24.401Z,158280.78
2022-12-11T18:04:28.554Z,158285.97
2022-12-11T18:07:32.713Z,158283.34
2022-12-11T18:10:36.953Z,158283.34
2022-12-11T18:13:42.514Z,158274.28
2022-12-11T18:16:46.607Z,158274.28
2022-12-11T18:19:51.159Z,158274.28
2022-12-11T18:22:55.568Z,158278.19
2022-12-11T18:26:00.355Z,158269.09
2022-12-11T18:29:05.302Z,158270.41
2022-12-11T18:32:09.033Z,158253.44
2022-12-11T18:35:13.145Z,158259.94
2022-12-11T18:38:17.891Z,158222.22
2022-12-11T18:41:21.783Z,158217.03
2022-12-11T18:44:26.191Z,158223.56
2022-12-11T18:47:30.739Z,158230.03
2022-12-11T18:50:35.161Z,158236.56
2022-12-11T18:53:39.460Z,158245.66
2022-12-11T18:56:43.825Z,158246.91
2022-12-11T18:59:53.492Z,158237.81
2022-12-11T19:02:57.196Z,158236.56
2022-12-11T19:06:19.144Z,158240.44
2022-12-11T19:09:23.469Z,158244.34
2022-12-11T19:12:27.638Z,158266.44
2022-12-11T19:15:31.559Z,158257.34
2022-12-11T19:18:35.699Z,158276.88
2022-12-11T19:21:40.484Z,158278.19
2022-12-11T19:24:44.622Z,158300.25
2022-12-11T19:27:50.110Z,158289.88
2022-12-11T19:30:56.990Z,158287.25
2022-12-11T19:34:02.093Z,158280.78
2022-12-11T19:37:06.065Z,158279.44
2022-12-11T19:40:10.525Z,158295.09
2022-12-11T19:43:14.711Z,158284.66
2022-12-11T19:46:19.883Z,158282.09
2022-12-11T19:49:23.928Z,158283.34
2022-12-11T19:52:28.180Z,158276.88
2022-12-11T19:55:32.789Z,158283.34
2022-12-11T19:58:37.508Z,158262.50
2022-12-11T20:01:42.361Z,158250.81
2022-12-11T20:04:46.221Z,158240.44
2022-12-11T20:07:50.127Z,158243.03
2022-12-11T20:10:54.217Z,158245.66
2022-12-11T20:13:58.685Z,158258.59
2022-12-11T20:17:13.379Z,158237.81
2022-12-11T20:20:18.971Z,158218.34
2022-12-11T20:23:23.140Z,158213.13
2022-12-11T20:26:27.462Z,158227.44
2022-12-11T20:29:31.444Z,158222.22
2022-12-11T20:32:36.833Z,158228.75
2022-12-11T20:35:41.087Z,158209.22
2022-12-11T20:38:46.108Z,158214.44
2022-12-11T20:41:50.232Z,158223.56
2022-12-11T20:44:54.783Z,158213.13
2022-12-11T20:47:59.005Z,158222.22
2022-12-11T20:51:05.308Z,158219.66
2022-12-11T20:54:09.567Z,158207.97
2022-12-11T20:57:16.311Z,158222.22
2022-12-11T21:00:20.622Z,158224.88
2022-12-11T21:03:24.664Z,158239.13
2022-12-11T21:06:32.673Z,158230.03
2022-12-11T21:09:39.080Z,158226.13
2022-12-11T21:12:43.932Z,158233.91
2022-12-11T21:15:52.404Z,158217.03
2022-12-11T21:18:57.461Z,158222.22
2022-12-11T21:22:02.187Z,158227.44
2022-12-11T21:25:06.633Z,158239.13
2022-12-11T21:28:10.842Z,158223.56
2022-12-11T21:31:17.830Z,158213.13
2022-12-11T21:34:25.315Z,158207.97
2022-12-11T21:37:30.432Z,158211.88
2022-12-11T21:40:34.384Z,158220.91
2022-12-11T21:43:52.559Z,158231.34
2022-12-11T21:47:02.752Z,158235.22
2022-12-11T21:50:07.092Z,158243.03
2022-12-11T21:53:11.516Z,158226.13
2022-12-11T21:56:18.067Z,158243.03
2022-12-11T21:59:22.083Z,158232.66
2022-12-11T22:02:26.315Z,158235.22
2022-12-11T22:05:30.360Z,158222.22
2022-12-11T22:08:34.663Z,158227.44
2022-12-11T22:11:40.036Z,158209.22
2022-12-11T22:14:43.839Z,158223.56
2022-12-11T22:17:48.012Z,158222.22
2022-12-11T22:20:55.348Z,158230.03
2022-12-11T22:23:59.933Z,158220.91
2022-12-11T22:27:03.984Z,158243.03
2022-12-11T22:30:08.882Z,158252.13
2022-12-11T22:33:13.080Z,158232.66
2022-12-11T22:36:20.030Z,158245.66
2022-12-11T22:39:24.681Z,158244.34
2022-12-11T22:42:28.629Z,158239.13
2022-12-11T22:45:33.361Z,158258.59
2022-12-11T22:48:37.489Z,158253.44
2022-12-11T22:51:41.457Z,158265.13
2022-12-11T22:54:45.967Z,158256.03
2022-12-11T22:57:50.023Z,158266.44
2022-12-11T23:00:54.386Z,158276.88
2022-12-11T23:03:58.619Z,158282.09
2022-12-11T23:07:02.998Z,158265.13
2022-12-11T23:10:08.959Z,158269.09
2022-12-11T23:13:13.123Z,158263.81
2022-12-11T23:16:17.819Z,158258.59
2022-12-11T23:19:25.571Z,158265.13
2022-12-11T23:22:30.454Z,158279.44
2022-12-11T23:25:34.714Z,158309.34
2022-12-11T23:28:39.722Z,158313.25
2022-12-11T23:31:43.872Z,158322.38
2022-12-11T23:34:47.906Z,158309.34
2022-12-11T23:37:52.267Z,158305.47
2022-12-11T23:40:58.612Z,158300.25
2022-12-11T23:44:03.044Z,158299.00
2022-12-11T23:47:06.898Z,158297.66
2022-12-11T23:50:11.011Z,158292.47
2022-12-11T23:53:15.459Z,158265.13
2022-12-11T23:56:24.894Z,158272.97
2022-12-11T23:59:29.248Z,158258.59
